Time;durP1;ratioP1;P1;durP2;ratioP2;P2;SDS_P1;SDS_P2;PMS_P1;PMS_P2;Temp;Humidity;BMP_temperature;BMP_pressure;BME280_temperature;BME280_humidity;BME280_pressure;Samples;Min_cycle;Max_cycle;Signal;HPM_P1;HPM_P2
2022/08/10 00:00:19;;;;;;;6.30;5.20;;;;;;;12.84;82.39;101598.64;84774;1325;24462;-68
2022/08/10 00:02:04;;;;;;;7.20;5.00;;;;;;;12.81;82.37;101600.98;84785;1329;22849;-67
2022/08/10 00:04:17;;;;;;;6.60;5.40;;;;;;;12.78;82.31;101601.41;84762;1326;25274;-69
2022/08/10 00:06:30;;;;;;;7.10;5.80;;;;;;;12.77;82.37;101603.02;84752;1327;22590;-69
2022/08/10 00:08:41;;;;;;;11.10;5.80;;;;;;;12.76;82.52;101604.62;84784;1326;22600;-70
2022/08/10 00:10:51;;;;;;;6.00;5.50;;;;;;;12.75;82.50;101602.54;84802;1325;22828;-67
2022/08/10 00:13:02;;;;;;;;;;;;;;;12.74;82.56;101604.50;84812;1327;22581;-69
2022/08/10 00:15:16;;;;;;;7.10;6.40;;;;;;;12.69;82.70;101605.34;84766;1323;22673;-67
2022/08/10 00:17:27;;;;;;;7.00;5.00;;;;;;;12.69;82.65;101605.36;84808;1318;22597;-70
2022/08/10 00:19:38;;;;;;;7.70;5.40;;;;;;;12.67;82.67;101606.27;84780;1326;22854;-68
2022/08/10 00:21:51;;;;;;;9.40;6.00;;;;;;;12.66;82.59;101604.91;84781;1327;22604;-70
2022/08/10 00:24:02;;;;;;;6.60;6.00;;;;;;;12.63;82.84;101609.70;84792;1327;25441;-70
2022/08/10 00:26:15;;;;;;;8.10;5.90;;;;;;;12.61;82.82;101603.10;84791;1326;24331;-68
2022/08/10 00:28:25;;;;;;;5.50;5.00;;;;;;;12.60;83.06;101604.17;84632;1328;23950;-68
2022/08/10 00:30:37;;;;;;;5.60;4.70;;;;;;;12.59;82.98;101602.12;84785;1326;22582;-69
2022/08/10 00:32:49;;;;;;;6.20;5.60;;;;;;;12.59;83.12;101600.72;84771;1326;22595;-68
2022/08/10 00:34:58;;;;;;;7.50;5.10;;;;;;;12.59;83.03;101597.05;84757;1326;23065;-70
2022/08/10 00:37:08;;;;;;;6.90;5.20;;;;;;;12.57;83.16;101601.64;84742;1324;22721;-69
2022/08/10 00:39:17;;;;;;;9.20;5.60;;;;;;;12.55;83.17;101596.27;84702;1328;22563;-70
2022/08/10 00:41:28;;;;;;;6.10;5.50;;;;;;;12.56;83.28;101594.84;84680;1330;24367;-69
2022/08/10 00:43:40;;;;;;;8.90;5.60;;;;;;;12.56;83.43;101594.50;84653;1326;22700;-69
2022/08/10 00:45:51;;;;;;;7.00;5.40;;;;;;;12.56;83.49;101596.95;84723;1327;22687;-68
2022/08/10 00:48:00;;;;;;;6.60;5.50;;;;;;;12.55;83.56;101597.14;84725;1326;22857;-70
2022/08/10 00:50:20;;;;;;;5.60;5.00;;;;;;;12.55;83.57;101597.50;84750;1327;22925;-71
2022/08/10 00:52:34;;;;;;;6.40;5.50;;;;;;;12.53;83.58;101600.70;84683;1329;22570;-70
2022/08/10 00:54:45;;;;;;;7.20;5.60;;;;;;;12.51;83.71;101604.06;84684;1329;22584;-68
2022/08/10 00:56:56;;;;;;;6.50;5.70;;;;;;;12.50;83.82;101603.39;84701;1322;22699;-70
2022/08/10 00:59:07;;;;;;;7.20;5.30;;;;;;;12.48;83.81;101599.26;84708;1330;24252;-69
2022/08/10 01:01:16;;;;;;;5.90;5.30;;;;;;;12.47;83.78;101598.59;84691;1328;25492;-69
2022/08/10 01:03:29;;;;;;;5.90;5.20;;;;;;;12.45;83.92;101600.02;84749;1327;22610;-69
2022/08/10 01:05:42;;;;;;;6.60;5.90;;;;;;;12.43;83.86;101601.65;84705;1327;24000;-66
2022/08/10 01:08:20;;;;;;;7.50;5.50;;;;;;;12.41;83.93;101606.95;84742;1327;22599;-69
2022/08/10 01:10:51;;;;;;;6.60;5.80;;;;;;;12.40;84.11;101607.86;84728;1327;22919;-69
2022/08/10 01:13:08;;;;;;;7.20;5.70;;;;;;;12.39;84.22;101606.31;84724;1327;22603;-69
2022/08/10 01:15:25;;;;;;;8.20;6.00;;;;;;;12.37;84.39;101606.17;84761;1329;22586;-69
2022/08/10 01:17:42;;;;;;;8.60;6.10;;;;;;;12.35;84.29;101604.48;84744;1327;22591;-68
2022/08/10 01:20:02;;;;;;;8.30;5.70;;;;;;;12.34;84.15;101602.95;84700;1327;25437;-68
2022/08/10 01:22:43;;;;;;;7.90;5.90;;;;;;;12.31;84.25;101608.25;84671;1328;22608;-67
2022/08/10 01:25:29;;;;;;;8.60;5.40;;;;;;;12.28;84.35;101607.27;84628;1331;25291;-69
2022/08/10 01:27:48;;;;;;;7.90;6.30;;;;;;;12.26;84.51;101601.40;84679;1329;22716;-70
2022/08/10 01:30:04;;;;;;;8.20;6.40;;;;;;;12.25;84.58;101606.13;84635;1328;25336;-69
2022/08/10 01:32:14;;;;;;;8.20;6.80;;;;;;;12.24;84.64;101605.64;84718;1327;22597;-68
2022/08/10 01:34:24;;;;;;;7.50;6.10;;;;;;;12.22;84.62;101603.60;84671;1330;24123;-68
2022/08/10 01:36:35;;;;;;;6.80;5.90;;;;;;;12.20;84.70;101603.64;84672;1327;23939;-68
2022/08/10 01:38:46;;;;;;;11.80;6.10;;;;;;;12.18;84.81;101603.85;84720;1327;22594;-70
2022/08/10 01:41:05;;;;;;;7.00;6.40;;;;;;;12.16;84.77;101608.48;84751;1327;25630;-69
2022/08/10 01:43:15;;;;;;;7.40;5.60;;;;;;;12.14;84.99;101606.95;84755;1327;25115;-68
2022/08/10 01:45:24;;;;;;;7.00;6.20;;;;;;;12.12;84.82;101608.02;84690;1327;24959;-71
2022/08/10 01:50:16;;;;;;;8.10;6.20;;;;;;;12.10;85.15;101615.77;84667;1332;22610;-69
2022/08/10 01:52:25;;;;;;;8.20;6.50;;;;;;;12.09;85.44;101615.11;84756;1327;23979;-69
2022/08/10 01:54:35;;;;;;;8.70;6.80;;;;;;;12.06;85.31;101613.95;84736;1328;23161;-66
2022/08/10 01:56:51;;;;;;;8.10;5.80;;;;;;;12.05;85.21;101612.93;84768;1327;22609;-68
2022/08/10 01:59:06;;;;;;;10.50;6.90;;;;;;;12.03;85.23;101612.98;84732;1328;23974;-69
2022/08/10 02:01:23;;;;;;;6.70;6.00;;;;;;;12.02;85.40;101613.35;84757;1327;25441;-68
2022/08/10 02:03:35;;;;;;;7.60;6.90;;;;;;;12.02;85.39;101611.43;84714;1327;22586;-69
2022/08/10 02:05:46;;;;;;;7.50;5.80;;;;;;;12.01;85.38;101612.34;84735;1327;22809;-67
2022/08/10 02:07:56;;;;;;;7.30;6.00;;;;;;;11.99;85.50;101611.85;84709;1327;22590;-70
2022/08/10 02:10:18;;;;;;;7.30;6.40;;;;;;;11.97;85.43;101613.48;84727;1327;23964;-69
2022/08/10 02:12:28;;;;;;;10.30;6.20;;;;;;;11.95;85.50;101612.84;84761;1327;22587;-71
2022/08/10 02:14:42;;;;;;;6.70;6.00;;;;;;;11.93;85.49;101614.80;84745;1327;23059;-70
2022/08/10 02:16:54;;;;;;;7.60;6.90;;;;;;;11.92;85.67;101617.80;84736;1327;24251;-69
2022/08/10 02:19:05;;;;;;;10.20;6.40;;;;;;;11.91;85.60;101619.22;84722;1327;22583;-67
2022/08/10 02:21:15;;;;;;;7.00;6.00;;;;;;;11.89;85.66;101621.88;84720;1327;24308;-68
2022/08/10 02:23:30;;;;;;;7.10;6.00;;;;;;;11.86;85.70;101620.38;84686;1328;22596;-68
2022/08/10 02:25:39;;;;;;;8.50;5.80;;;;;;;11.85;85.91;101622.33;84751;1328;25495;-69
2022/08/10 02:27:49;;;;;;;6.10;5.50;;;;;;;11.85;85.84;101621.80;84750;1327;22613;-69
2022/08/10 02:30:03;;;;;;;8.50;5.40;;;;;;;11.83;85.79;101625.00;84743;1325;22612;-67
2022/08/10 02:32:12;;;;;;;7.10;5.50;;;;;;;11.81;85.75;101626.95;84722;1333;22615;-69
2022/08/10 02:34:22;;;;;;;8.30;6.20;;;;;;;11.78;85.88;101626.84;84751;1327;22596;-68
2022/08/10 02:36:33;;;;;;;8.90;6.20;;;;;;;11.75;85.96;101623.40;84756;1327;22615;-70
2022/08/10 02:38:48;;;;;;;6.40;5.40;;;;;;;11.72;86.03;101623.48;84790;1324;22580;-70
2022/08/10 02:41:05;;;;;;;6.20;4.70;;;;;;;11.71;85.90;101627.86;84760;1327;25997;-68
2022/08/10 02:43:25;;;;;;;9.00;5.90;;;;;;;11.70;85.87;101626.50;84752;1324;22791;-69
2022/08/10 02:45:38;;;;;;;;;;;;;;;11.68;85.94;101625.30;84749;1327;22625;-69
2022/08/10 02:47:52;;;;;;;7.10;4.90;;;;;;;11.64;86.31;101630.63;84740;1330;25495;-71
2022/08/10 02:50:10;;;;;;;6.00;5.20;;;;;;;11.62;86.01;101630.50;84761;1327;22608;-68
2022/08/10 02:52:25;;;;;;;8.20;5.10;;;;;;;11.61;86.37;101627.55;84616;1330;22662;-69
2022/08/10 02:54:38;;;;;;;5.90;4.90;;;;;;;11.60;86.12;101627.77;84724;1327;23968;-69
2022/08/10 02:57:01;;;;;;;6.00;5.00;;;;;;;11.59;86.12;101626.21;84763;1327;22989;-69
2022/08/10 02:59:13;;;;;;;8.40;5.00;;;;;;;11.57;86.27;101626.27;84754;1327;22614;-69
2022/08/10 03:01:27;;;;;;;6.70;5.10;;;;;;;11.54;86.08;101628.23;84728;1329;22580;-67
2022/08/10 03:03:37;;;;;;;9.00;5.50;;;;;;;11.53;86.23;101627.75;84759;1327;24311;-68
2022/08/10 03:05:45;;;;;;;;;;;;;;;11.51;86.40;101627.77;84792;1327;25428;-67
2022/08/10 03:08:02;;;;;;;6.40;5.20;;;;;;;11.49;86.40;101630.10;84663;1330;22612;-67
2022/08/10 03:10:23;;;;;;;8.60;5.40;;;;;;;11.49;86.42;101626.27;84754;1328;22606;-69
2022/08/10 03:12:38;;;;;;;7.50;5.20;;;;;;;11.48;86.35;101626.11;84763;1327;22739;-69
2022/08/10 03:14:47;;;;;;;14.00;5.10;;;;;;;11.49;86.46;101628.37;84676;1329;26557;-69
2022/08/10 03:16:58;;;;;;;11.10;5.70;;;;;;;11.49;86.58;101629.23;84753;1327;22710;-71
2022/08/10 03:19:14;;;;;;;7.80;5.40;;;;;;;11.50;86.56;101633.05;84725;1330;22586;-70
2022/08/10 03:21:25;;;;;;;9.50;4.70;;;;;;;11.51;86.76;101635.30;84725;1332;22610;-71
2022/08/10 03:23:34;;;;;;;9.40;5.20;;;;;;;11.52;86.75;101637.37;84792;1327;25470;-70
2022/08/10 03:25:47;;;;;;;13.90;4.80;;;;;;;11.53;86.95;101642.25;84744;1329;22593;-69
2022/08/10 03:28:02;;;;;;;10.60;5.20;;;;;;;11.54;86.92;101642.41;84785;1328;22592;-68
2022/08/10 03:30:16;;;;;;;13.10;5.80;;;;;;;11.56;86.91;101642.34;84747;1327;22600;-67
2022/08/10 03:32:28;;;;;;;13.00;5.10;;;;;;;11.57;87.14;101636.72;84767;1327;24355;-69
2022/08/10 03:34:40;;;;;;;14.50;5.30;;;;;;;11.58;87.25;101635.67;84770;1321;22599;-66
2022/08/10 03:36:51;;;;;;;10.90;5.50;;;;;;;11.60;87.17;101636.33;84784;1328;22608;-69
2022/08/10 03:39:03;;;;;;;13.50;5.00;;;;;;;11.62;87.41;101638.73;84742;1327;22849;-68
2022/08/10 03:41:16;;;;;;;10.60;4.90;;;;;;;11.66;87.34;101638.30;84741;1327;22669;-69
2022/08/10 03:43:28;;;;;;;13.40;5.30;;;;;;;11.69;87.56;101640.68;84735;1322;22634;-70
2022/08/10 03:45:38;;;;;;;10.80;4.90;;;;;;;11.73;87.72;101638.30;84721;1327;22591;-67
2022/08/10 03:47:47;;;;;;;;;;;;;;;11.77;87.68;101639.45;84758;1326;22572;-69
2022/08/10 03:49:59;;;;;;;23.30;5.00;;;;;;;11.79;87.91;101642.53;84743;1327;22677;-68
2022/08/10 03:52:11;;;;;;;15.00;5.20;;;;;;;11.86;87.89;101646.09;84752;1327;22573;-70
2022/08/10 03:54:22;;;;;;;9.90;4.70;;;;;;;11.91;87.85;101648.24;84766;1327;25266;-69
2022/08/10 03:56:38;;;;;;;11.80;6.30;;;;;;;11.99;88.12;101649.27;84750;1327;25282;-69
2022/08/10 03:58:53;;;;;;;13.90;6.10;;;;;;;12.34;88.78;101646.16;84767;1324;23056;-70
2022/08/10 04:01:03;;;;;;;17.90;5.60;;;;;;;12.89;90.01;101647.00;84755;1327;23959;-71
2022/08/10 04:03:18;;;;;;;;;;;;;;;13.62;92.10;101645.29;84787;1324;22799;-71
2022/08/10 04:05:32;;;;;;;9.30;5.40;;;;;;;14.36;91.57;101650.83;84718;1329;22640;-70
2022/08/10 04:07:41;;;;;;;13.30;4.80;;;;;;;14.93;89.21;101648.36;84746;1327;22674;-67
2022/08/10 04:09:53;;;;;;;13.90;4.80;;;;;;;15.59;88.37;101642.73;84756;1327;22649;-68
2022/08/10 04:12:01;;;;;;;9.30;4.60;;;;;;;16.32;87.29;101647.05;84693;1328;23984;-71
2022/08/10 04:14:09;;;;;;;7.80;4.30;;;;;;;16.77;85.16;101646.39;84696;1326;22606;-69
2022/08/10 04:16:18;;;;;;;13.50;5.00;;;;;;;16.75;82.00;101646.16;84751;1327;24449;-69
2022/08/10 04:18:28;;;;;;;14.20;4.90;;;;;;;16.54;80.25;101648.80;84751;1327;22622;-69
2022/08/10 04:20:45;;;;;;;16.50;5.70;;;;;;;16.32;79.54;101655.70;84728;1328;22664;-70
2022/08/10 04:22:58;;;;;;;18.40;6.00;;;;;;;16.13;79.52;101657.71;84669;1328;22754;-70
2022/08/10 04:25:09;;;;;;;17.40;4.70;;;;;;;16.02;79.53;101656.23;84723;1325;22597;-67
2022/08/10 04:27:19;;;;;;;21.80;5.60;;;;;;;15.89;79.58;101655.13;84761;1327;22873;-70
2022/08/10 04:29:36;;;;;;;32.50;6.50;;;;;;;15.82;79.89;101651.91;84715;1327;23968;-68
2022/08/10 04:31:47;;;;;;;22.80;6.80;;;;;;;15.78;80.28;101653.84;84760;1328;22733;-69
2022/08/10 04:34:01;;;;;;;26.60;6.40;;;;;;;15.75;80.25;101655.16;84638;1330;24259;-69
2022/08/10 04:36:15;;;;;;;32.50;6.50;;;;;;;15.77;80.57;101658.63;84772;1327;22581;-69
2022/08/10 04:38:24;;;;;;;20.40;6.00;;;;;;;15.79;80.78;101658.73;84757;1328;22714;-68
2022/08/10 04:40:36;;;;;;;18.70;6.40;;;;;;;15.78;80.71;101660.52;84745;1327;22593;-69
2022/08/10 04:42:48;;;;;;;17.00;5.80;;;;;;;15.79;80.91;101657.33;84664;1332;22662;-70
2022/08/10 04:45:10;;;;;;;9.00;4.90;;;;;;;15.84;81.07;101659.55;84743;1329;25314;-71
2022/08/10 04:47:20;;;;;;;9.60;4.50;;;;;;;15.93;81.11;101659.73;84748;1327;22643;-70
2022/08/10 04:49:30;;;;;;;33.30;6.70;;;;;;;16.27;81.80;101662.23;84764;1327;22589;-69
2022/08/10 04:51:40;;;;;;;10.10;4.90;;;;;;;17.10;82.31;101661.36;84794;1328;22707;-69
2022/08/10 04:53:53;;;;;;;22.60;4.90;;;;;;;18.22;82.65;101658.58;84698;1329;24234;-69
2022/08/10 04:56:07;;;;;;;31.80;6.40;;;;;;;19.44;80.30;101659.65;84711;1330;25320;-71
2022/08/10 04:58:17;;;;;;;19.30;4.60;;;;;;;20.54;76.48;101656.27;84389;1328;502274;-70
2022/08/10 05:00:26;;;;;;;13.40;4.10;;;;;;;21.49;72.64;101654.88;84780;1327;22593;-70
2022/08/10 05:02:35;;;;;;;13.20;3.30;;;;;;;22.35;69.18;101656.75;84685;1328;22623;-70
2022/08/10 05:04:44;;;;;;;16.70;4.70;;;;;;;23.14;65.99;101656.31;84686;1328;22598;-70
2022/08/10 05:06:54;;;;;;;23.60;5.70;;;;;;;23.98;62.80;101658.66;84722;1328;22619;-68
2022/08/10 05:09:10;;;;;;;31.90;6.70;;;;;;;24.59;58.90;101654.83;84706;1328;22651;-69
2022/08/10 05:11:21;;;;;;;23.80;5.40;;;;;;;25.09;57.41;101655.93;84761;1328;22987;-70
2022/08/10 05:13:32;;;;;;;34.90;5.50;;;;;;;25.75;55.39;101654.23;84773;1328;22719;-70
2022/08/10 05:15:44;;;;;;;28.90;5.50;;;;;;;26.40;52.82;101660.67;84760;1327;25349;-70
2022/08/10 05:17:55;;;;;;;42.00;7.30;;;;;;;26.85;51.15;101657.58;84750;1327;22779;-70
2022/08/10 05:20:12;;;;;;;48.60;7.40;;;;;;;27.25;50.63;101656.36;84716;1327;22597;-70
2022/08/10 05:22:21;;;;;;;44.90;6.70;;;;;;;27.45;49.08;101657.26;84770;1327;22606;-71
2022/08/10 05:24:37;;;;;;;60.50;10.50;;;;;;;27.42;48.13;101657.41;84773;1323;25431;-72
2022/08/10 05:26:48;;;;;;;45.60;7.70;;;;;;;27.25;47.52;101662.45;84764;1325;22966;-71
2022/08/10 05:28:59;;;;;;;29.80;5.70;;;;;;;26.89;47.32;101660.22;84660;1324;22744;-71
2022/08/10 05:31:08;;;;;;;21.10;5.90;;;;;;;26.63;47.94;101663.38;84758;1327;22759;-71
2022/08/10 05:33:20;;;;;;;35.30;6.20;;;;;;;26.67;47.68;101664.08;84744;1327;24232;-72
2022/08/10 05:35:31;;;;;;;24.60;5.30;;;;;;;26.83;47.47;101665.45;84762;1326;24210;-71
2022/08/10 05:37:41;;;;;;;36.60;6.00;;;;;;;27.13;46.61;101664.38;84700;1328;24251;-71
2022/08/10 05:39:54;;;;;;;26.20;5.10;;;;;;;27.55;46.41;101663.42;84744;1327;22592;-71
2022/08/10 05:42:05;;;;;;;31.10;6.10;;;;;;;28.00;45.70;101661.88;84809;1329;22601;-69
2022/08/10 05:44:24;;;;;;;38.70;6.80;;;;;;;28.63;44.67;101662.47;84744;1328;24282;-70
2022/08/10 05:46:36;;;;;;;38.70;7.10;;;;;;;29.21;43.47;101658.81;84722;1321;25438;-70
2022/08/10 05:48:48;;;;;;;28.70;5.80;;;;;;;29.58;42.05;101660.42;84744;1325;22586;-70
2022/08/10 05:51:00;;;;;;;28.20;6.70;;;;;;;29.90;41.40;101660.77;84775;1327;22656;-70
2022/08/10 05:53:08;;;;;;;23.50;5.20;;;;;;;30.14;40.21;101658.60;84681;1327;22568;-70
2022/08/10 05:55:17;;;;;;;;;;;;;;;30.25;39.72;101657.52;84732;1325;22665;-70
2022/08/10 05:57:26;;;;;;;37.90;6.70;;;;;;;30.51;40.06;101664.75;84742;1327;22844;-70
2022/08/10 05:59:37;;;;;;;46.00;7.90;;;;;;;31.00;39.07;101660.11;84757;1328;22602;-70
2022/08/10 06:01:47;;;;;;;55.70;9.20;;;;;;;31.51;37.84;101657.57;84810;1327;22594;-70
2022/08/10 06:03:58;;;;;;;39.00;6.30;;;;;;;31.85;37.02;101656.80;84748;1328;22596;-68
2022/08/10 06:06:08;;;;;;;37.60;5.00;;;;;;;31.94;36.05;101652.36;84758;1325;22580;-70
2022/08/10 06:08:22;;;;;;;24.20;5.00;;;;;;;31.93;35.34;101659.07;84750;1325;22578;-72
2022/08/10 06:10:35;;;;;;;29.70;5.70;;;;;;;31.94;35.48;101661.67;84775;1327;24314;-72
2022/08/10 06:12:46;;;;;;;46.90;6.10;;;;;;;32.09;35.51;101667.34;84748;1323;24190;-70
2022/08/10 06:15:02;;;;;;;29.60;4.90;;;;;;;32.27;35.27;101667.34;84772;1327;26085;-70
2022/08/10 06:17:11;;;;;;;24.90;4.40;;;;;;;32.52;34.55;101666.13;84783;1326;22577;-72
2022/08/10 06:19:22;;;;;;;7.50;3.50;;;;;;;32.83;34.20;101663.83;84732;1327;22668;-72
2022/08/10 06:21:31;;;;;;;;;;;;;;;33.18;33.81;101662.79;84777;1328;23773;-70
2022/08/10 06:23:49;;;;;;;12.80;2.80;;;;;;;33.56;33.38;101660.27;84759;1327;22609;-71
2022/08/10 06:26:01;;;;;;;5.80;2.90;;;;;;;33.97;32.68;101664.05;84756;1327;22645;-73
2022/08/10 06:28:11;;;;;;;8.00;2.70;;;;;;;34.36;32.13;101664.34;84733;1329;22601;-71
2022/08/10 06:30:21;;;;;;;9.60;3.40;;;;;;;34.69;31.33;101667.59;84690;1329;22708;-70
2022/08/10 06:32:34;;;;;;;15.00;3.10;;;;;;;34.95;30.73;101668.99;84735;1327;22744;-72
2022/08/10 06:34:46;;;;;;;17.60;3.90;;;;;;;35.25;30.52;101671.27;84771;1322;22596;-72
2022/08/10 06:36:56;;;;;;;5.20;2.30;;;;;;;35.39;29.73;101671.13;84710;1331;22708;-70
2022/08/10 06:39:08;;;;;;;6.30;2.00;;;;;;;35.17;29.29;101671.67;84688;1329;23958;-70
2022/08/10 06:41:23;;;;;;;6.20;1.90;;;;;;;34.94;29.34;101672.30;84732;1330;22617;-70
2022/08/10 06:43:32;;;;;;;5.10;2.20;;;;;;;35.03;30.07;101668.76;84751;1328;22660;-67
2022/08/10 06:45:48;;;;;;;3.90;1.90;;;;;;;35.46;29.81;101668.20;84736;1327;22589;-71
2022/08/10 06:48:01;;;;;;;4.10;2.30;;;;;;;35.93;29.03;101660.30;84686;1325;22644;-70
2022/08/10 06:50:17;;;;;;;2.30;1.60;;;;;;;35.93;28.56;101659.12;84658;1330;24130;-69
2022/08/10 06:52:26;;;;;;;5.40;1.80;;;;;;;35.95;28.19;101656.05;84779;1327;22612;-69
2022/08/10 06:54:35;;;;;;;5.80;3.70;;;;;;;35.95;28.31;101658.20;84757;1327;22639;-70
2022/08/10 06:56:48;;;;;;;2.80;2.00;;;;;;;36.07;27.96;101655.76;84766;1329;22645;-70
2022/08/10 06:59:03;;;;;;;3.60;1.30;;;;;;;36.07;27.28;101651.48;84771;1327;22845;-72
2022/08/10 07:01:15;;;;;;;3.60;1.80;;;;;;;35.99;27.93;101650.11;84730;1328;22576;-71
2022/08/10 07:03:26;;;;;;;2.20;1.70;;;;;;;36.32;28.19;101650.94;84760;1328;22621;-72
2022/08/10 07:05:35;;;;;;;2.50;1.60;;;;;;;36.44;27.25;101651.78;84688;1329;22630;-71
2022/08/10 07:07:44;;;;;;;6.30;1.80;;;;;;;36.25;27.41;101653.63;84743;1329;22668;-70
2022/08/10 07:09:52;;;;;;;2.30;1.60;;;;;;;36.13;27.14;101651.52;84724;1324;22739;-69
2022/08/10 07:12:05;;;;;;;;;;;;;;;35.98;27.35;101651.27;84780;1324;22886;-70
2022/08/10 07:14:22;;;;;;;1.50;1.20;;;;;;;35.91;27.34;101651.80;84682;1326;24242;-69
2022/08/10 07:16:33;;;;;;;2.60;1.80;;;;;;;36.01;26.61;101652.19;84681;1329;22611;-70
2022/08/10 07:18:44;;;;;;;1.60;1.40;;;;;;;35.79;26.24;101652.35;84717;1328;22613;-70
2022/08/10 07:20:54;;;;;;;3.30;1.70;;;;;;;35.76;27.17;101654.45;84771;1327;22756;-70
2022/08/10 07:23:06;;;;;;;2.80;1.20;;;;;;;35.90;27.25;101649.31;84751;1321;22585;-69
2022/08/10 07:25:21;;;;;;;2.70;1.50;;;;;;;35.73;26.68;101650.94;84693;1329;22578;-69
2022/08/10 07:27:33;;;;;;;3.30;1.70;;;;;;;35.60;27.17;101651.00;84767;1328;25395;-70
2022/08/10 07:29:42;;;;;;;2.80;1.40;;;;;;;35.93;27.21;101646.67;84749;1322;22645;-70
2022/08/10 07:31:52;;;;;;;3.50;1.70;;;;;;;36.13;26.45;101648.85;84656;1331;23933;-72
2022/08/10 07:34:05;;;;;;;1.60;1.30;;;;;;;36.10;26.70;101648.79;84764;1327;22654;-72
2022/08/10 07:36:15;;;;;;;3.50;1.60;;;;;;;36.05;26.08;101651.30;84726;1321;22585;-73
2022/08/10 07:38:26;;;;;;;2.40;1.50;;;;;;;35.76;26.24;101651.34;84732;1328;22682;-72
2022/08/10 07:40:40;;;;;;;2.80;1.70;;;;;;;34.77;26.54;101655.15;84720;1325;22596;-71
2022/08/10 07:42:51;;;;;;;3.80;1.70;;;;;;;33.59;28.11;101654.13;84727;1327;22596;-71
2022/08/10 07:45:01;;;;;;;1.60;1.40;;;;;;;33.32;29.23;101653.02;84639;1330;24261;-72
2022/08/10 07:47:14;;;;;;;3.50;1.70;;;;;;;32.93;29.25;101656.27;84698;1328;22587;-69
2022/08/10 07:49:28;;;;;;;1.60;1.50;;;;;;;32.86;29.20;101653.98;84754;1327;25448;-69
2022/08/10 07:51:39;;;;;;;4.00;1.70;;;;;;;32.84;29.28;101651.67;84757;1327;23861;-70
2022/08/10 07:53:53;;;;;;;1.90;1.70;;;;;;;33.05;29.12;101654.73;84700;1330;22660;-69
2022/08/10 07:56:07;;;;;;;4.60;1.50;;;;;;;33.35;28.89;101655.77;84698;1331;22631;-70
2022/08/10 07:58:20;;;;;;;3.90;1.50;;;;;;;32.90;29.02;101652.59;84715;1328;25470;-70
2022/08/10 08:00:30;;;;;;;5.10;1.80;;;;;;;33.06;29.93;101653.95;84701;1331;22609;-69
2022/08/10 08:02:44;;;;;;;4.70;1.60;;;;;;;33.63;29.08;101655.89;84750;1331;22900;-71
2022/08/10 08:04:53;;;;;;;14.50;3.10;;;;;;;34.03;27.73;101658.44;84704;1330;25492;-70
2022/08/10 08:07:07;;;;;;;19.70;3.10;;;;;;;33.64;28.12;101656.06;84765;1327;23066;-68
2022/08/10 08:09:16;;;;;;;11.10;2.60;;;;;;;33.97;28.90;101654.80;84752;1323;22609;-68
2022/08/10 08:11:25;;;;;;;17.60;3.10;;;;;;;34.50;27.80;101657.88;84754;1327;23962;-68
2022/08/10 08:13:37;;;;;;;22.50;3.50;;;;;;;34.51;27.86;101662.48;84663;1328;22584;-68
2022/08/10 08:15:49;;;;;;;24.20;3.90;;;;;;;34.07;28.25;101663.70;84734;1327;22649;-72
2022/08/10 08:17:58;;;;;;;21.00;3.40;;;;;;;33.56;28.99;101658.64;84745;1327;22609;-73
2022/08/10 08:20:09;;;;;;;13.70;2.40;;;;;;;33.08;29.05;101658.74;84702;1329;22576;-73
2022/08/10 08:22:22;;;;;;;6.30;2.10;;;;;;;32.42;29.46;101656.02;84787;1330;22581;-69
2022/08/10 08:24:31;;;;;;;17.80;4.10;;;;;;;31.94;29.65;101652.88;84699;1329;25240;-72
2022/08/10 08:26:45;;;;;;;14.40;2.70;;;;;;;31.36;31.08;101657.70;84743;1328;25285;-73
2022/08/10 08:28:54;;;;;;;10.60;2.10;;;;;;;30.99;31.84;101655.83;84745;1329;25429;-72
2022/08/10 08:31:01;;;;;;;;;;;;;;;31.56;32.48;101647.77;84762;1327;22569;-71
2022/08/10 08:33:14;;;;;;;1.80;1.40;;;;;;;32.65;31.33;101646.92;84767;1327;22595;-71
2022/08/10 08:35:25;;;;;;;4.30;1.30;;;;;;;33.88;29.95;101641.89;84739;1329;24103;-72
2022/08/10 08:37:36;;;;;;;7.30;2.10;;;;;;;34.80;28.23;101640.14;84681;1325;22599;-74
2022/08/10 08:39:45;;;;;;;4.30;1.80;;;;;;;35.38;27.28;101640.29;84738;1327;22582;-73
2022/08/10 08:42:09;;;;;;;3.20;1.60;;;;;;;35.73;26.58;101639.54;84739;1327;22868;-70
2022/08/10 08:44:30;;;;;;;6.20;1.50;;;;;;;35.64;26.69;101639.74;84755;1327;22585;-69
2022/08/10 08:47:07;;;;;;;7.70;1.90;;;;;;;35.81;26.12;101643.42;84708;1330;22638;-72
2022/08/10 08:49:42;;;;;;;2.80;1.20;;;;;;;35.81;25.78;101640.38;84729;1325;22689;-71
2022/08/10 08:52:08;;;;;;;2.70;1.70;;;;;;;35.49;25.68;101645.23;84763;1328;22729;-69
2022/08/10 08:54:30;;;;;;;3.10;1.20;;;;;;;35.24;26.78;101641.27;84764;1327;24271;-70
2022/08/10 08:56:49;;;;;;;2.90;1.40;;;;;;;34.71;26.97;101641.05;84792;1327;23923;-69
2022/08/10 08:59:36;;;;;;;5.50;1.30;;;;;;;33.80;27.23;101639.20;84749;1327;25301;-69
2022/08/10 09:02:01;;;;;;;2.00;1.30;;;;;;;32.87;28.36;101638.67;84798;1327;22575;-72
2022/08/10 09:04:33;;;;;;;3.00;1.60;;;;;;;33.23;28.52;101636.02;84775;1328;22857;-71
2022/08/10 09:07:07;;;;;;;1.90;1.30;;;;;;;34.05;28.31;101630.98;84695;1328;22605;-72
2022/08/10 09:10:11;;;;;;;2.40;1.00;;;;;;;34.86;27.18;101631.11;84745;1326;22690;-72
2022/08/10 09:12:37;;;;;;;2.80;1.30;;;;;;;35.66;26.68;101623.12;84774;1327;22606;-70
2022/08/10 09:15:02;;;;;;;2.90;1.10;;;;;;;36.16;25.53;101624.31;84740;1320;25279;-70
2022/08/10 09:17:19;;;;;;;2.90;1.20;;;;;;;36.54;25.11;101628.07;84770;1327;22726;-71
2022/08/10 09:19:32;;;;;;;2.50;0.90;;;;;;;36.67;23.85;101622.93;84748;1327;22715;-71
2022/08/10 09:21:48;;;;;;;12.60;1.70;;;;;;;36.68;23.61;101621.39;84784;1327;22758;-70
2022/08/10 09:24:13;;;;;;;4.80;1.40;;;;;;;36.68;23.37;101623.35;84738;1329;22858;-72
2022/08/10 09:26:28;;;;;;;16.00;2.20;;;;;;;36.63;23.13;101619.13;84694;1329;24235;-70
2022/08/10 09:28:46;;;;;;;3.60;1.10;;;;;;;36.43;22.94;101618.13;84759;1327;22826;-70
2022/08/10 09:31:04;;;;;;;4.80;1.50;;;;;;;36.30;23.64;101618.93;84777;1328;22756;-69
2022/08/10 09:33:16;;;;;;;14.70;3.20;;;;;;;36.01;23.33;101616.10;84760;1331;22586;-69
2022/08/10 09:35:51;;;;;;;3.90;1.20;;;;;;;35.57;24.28;101615.60;84786;1328;22600;-68
2022/08/10 09:38:09;;;;;;;0.60;0.60;;;;;;;34.89;23.99;101620.20;84727;1328;22588;-71
2022/08/10 09:40:27;;;;;;;1.80;0.90;;;;;;;34.28;24.82;101620.11;84811;1330;22595;-70
2022/08/10 09:42:44;;;;;;;1.20;0.90;;;;;;;33.67;25.18;101614.27;84788;1327;22659;-71
2022/08/10 09:45:00;;;;;;;3.70;1.00;;;;;;;32.81;25.40;101614.21;84682;1324;22673;-70
2022/08/10 09:47:24;;;;;;;2.20;0.80;;;;;;;32.27;27.13;101610.89;84680;1329;22605;-71
2022/08/10 09:49:41;;;;;;;3.10;1.10;;;;;;;32.03;26.80;101610.77;84759;1327;24347;-70
2022/08/10 09:51:57;;;;;;;1.10;0.90;;;;;;;31.87;27.50;101609.54;84775;1328;22581;-70
2022/08/10 09:54:29;;;;;;;2.40;0.70;;;;;;;31.60;28.13;101606.95;84756;1327;25427;-70
2022/08/10 09:56:50;;;;;;;1.20;0.60;;;;;;;31.33;28.28;101606.29;84676;1327;22585;-70
2022/08/10 09:59:20;;;;;;;2.00;1.10;;;;;;;31.22;28.37;101604.73;84719;1329;22648;-71
2022/08/10 10:01:34;;;;;;;1.50;1.20;;;;;;;31.11;28.20;101597.83;84668;1332;22626;-70
2022/08/10 10:03:54;;;;;;;4.40;1.40;;;;;;;30.45;28.86;101601.10;84752;1327;22667;-68
2022/08/10 10:06:10;;;;;;;2.50;1.70;;;;;;;29.91;30.47;101601.21;84783;1327;23972;-71
2022/08/10 10:08:30;;;;;;;4.90;1.30;;;;;;;29.63;31.13;101596.39;84711;1331;22594;-70
2022/08/10 10:10:53;;;;;;;3.60;1.80;;;;;;;29.71;31.36;101594.67;84756;1327;22541;-71
2022/08/10 10:13:17;;;;;;;4.20;1.40;;;;;;;29.96;31.39;101597.13;84742;1328;24260;-71
2022/08/10 10:15:37;;;;;;;2.60;1.70;;;;;;;30.12;31.16;101595.61;84704;1332;22630;-70
2022/08/10 10:18:11;;;;;;;4.60;1.80;;;;;;;29.96;31.04;101600.98;84784;1331;22588;-70
2022/08/10 10:20:27;;;;;;;3.40;1.40;;;;;;;29.60;31.51;101598.30;84773;1328;22586;-72
2022/08/10 10:22:53;;;;;;;6.40;2.10;;;;;;;29.26;31.12;101599.31;84766;1327;25519;-72
2022/08/10 10:25:18;;;;;;;3.60;1.10;;;;;;;28.85;31.13;101600.07;84783;1327;24142;-70